Time;durP1;ratioP1;P1;durP2;ratioP2;P2;SDS_P1;SDS_P2;PMS_P1;PMS_P2;Temp;Humidity;BMP_temperature;BMP_pressure;BME280_temperature;BME280_humidity;BME280_pressure;Samples;Min_cycle;Max_cycle;Signal;HPM_P1;HPM_P2
2022/03/26 00:00:40;;;;;;;;;64.00;50.67;;;;;5.45;56.60;100575.78;6280310;20;2868010;-46
2022/03/26 00:03:10;;;;;;;;;72.33;54.00;;;;;5.32;57.43;100577.03;6313692;20;2875454;-44
2022/03/26 00:05:43;;;;;;;;;66.33;45.67;;;;;5.05;57.47;100574.16;6313985;20;2875427;-46
2022/03/26 00:08:13;;;;;;;;;69.00;51.67;;;;;4.60;58.21;100578.75;6312878;20;2885660;-47
2022/03/26 00:10:42;;;;;;;;;71.00;54.00;;;;;4.70;57.01;100579.44;6314512;20;2674226;-45
2022/03/26 00:13:11;;;;;;;;;62.00;46.50;;;;;4.10;57.45;100580.72;6312902;20;2875352;-45
2022/03/26 00:15:39;;;;;;;;;55.50;44.00;;;;;4.24;56.89;100580.44;6281219;20;2503426;-44
2022/03/26 00:18:08;;;;;;;;;58.50;41.00;;;;;4.17;56.77;100585.88;6280096;20;2876597;-45
2022/03/26 00:20:37;;;;;;;;;50.00;42.00;;;;;4.86;54.88;100588.78;6283288;20;2862753;-46
2022/03/26 00:23:07;;;;;;;;;57.33;41.67;;;;;4.52;56.58;100581.59;6282790;20;2889898;-47
2022/03/26 00:25:37;;;;;;;;;71.00;50.67;;;;;4.98;56.36;100585.84;6314292;20;2897227;-44
2022/03/26 00:28:06;;;;;;;;;69.00;54.00;;;;;4.30;59.15;100581.19;6312812;20;2881623;-44
2022/03/26 00:30:36;;;;;;;;;76.33;55.67;;;;;4.64;58.77;100579.56;6312214;20;3643026;-45
2022/03/26 00:33:06;;;;;;;;;85.00;63.00;;;;;4.57;59.27;100571.72;6313482;20;3658667;-46
2022/03/26 00:35:36;;;;;;;;;89.33;63.00;;;;;4.66;59.37;100569.75;6310777;20;3657505;-60
2022/03/26 00:38:06;;;;;;;;;94.67;68.67;;;;;4.53;60.59;100572.72;6313769;20;3648229;-59
2022/03/26 00:40:37;;;;;;;;;87.00;65.00;;;;;4.64;59.88;100564.50;6313368;20;3623180;-59
2022/03/26 00:43:07;;;;;;;;;83.67;63.00;;;;;4.27;61.29;100569.75;6312549;20;3658546;-58
2022/03/26 00:45:36;;;;;;;;;90.67;68.00;;;;;4.25;60.93;100568.91;6313452;20;3655430;-59
2022/03/26 00:48:06;;;;;;;;;84.00;62.33;;;;;4.27;60.64;100580.41;6310561;20;3654400;-59
2022/03/26 00:50:36;;;;;;;;;70.00;50.00;;;;;4.64;57.83;100564.50;6311313;20;2884683;-58
2022/03/26 00:53:05;;;;;;;;;65.00;51.00;;;;;3.96;58.87;100560.63;6314991;20;2871071;-59
2022/03/26 00:55:34;;;;;;;;;64.50;52.00;;;;;3.54;60.07;100559.69;6282751;20;2862745;-59
2022/03/26 00:58:02;;;;;;;;;59.00;45.00;;;;;3.13;60.51;100563.94;6277613;20;2480469;-59
2022/03/26 01:00:31;;;;;;;;;60.00;46.00;;;;;3.28;60.42;100554.84;6276632;20;2870170;-59
2022/03/26 01:03:02;;;;;;;;;62.33;44.33;;;;;3.18;60.74;100559.44;6280490;20;3640891;-58
2022/03/26 01:05:30;;;;;;;;;60.00;46.50;;;;;3.04;61.58;100551.72;6308949;20;2487806;-58
2022/03/26 01:07:59;;;;;;;;;54.00;43.50;;;;;3.25;60.53;100550.47;6275776;20;2865901;-59
2022/03/26 01:10:29;;;;;;;;;56.00;43.00;;;;;3.12;61.42;100551.59;6279434;20;2874272;-60
2022/03/26 01:12:57;;;;;;;;;56.50;44.00;;;;;3.01;61.88;100558.88;6281033;20;2876349;-46
2022/03/26 01:15:27;;;;;;;;;51.67;40.67;;;;;3.05;62.58;100563.19;6280771;20;2870043;-48
2022/03/26 01:17:56;;;;;;;;;57.00;46.00;;;;;3.44;60.97;100556.31;6312138;20;2862875;-47
2022/03/26 01:20:25;;;;;;;;;59.50;48.00;;;;;3.59;60.53;100559.63;6279574;20;2861794;-46
2022/03/26 01:22:54;;;;;;;;;62.50;45.00;;;;;3.56;61.01;100552.59;6283228;20;2862765;-47
2022/03/26 01:25:24;;;;;;;;;63.00;48.00;;;;;3.37;61.39;100545.84;6281129;20;2746599;-45
2022/03/26 01:27:53;;;;;;;;;71.00;52.00;;;;;3.18;63.00;100547.94;6309759;20;2875273;-46
2022/03/26 01:30:24;;;;;;;;;66.67;49.33;;;;;3.44;61.62;100544.84;6278153;20;2878360;-46
2022/03/26 01:32:53;;;;;;;;;62.00;47.00;;;;;2.92;63.66;100545.75;6308700;20;2494027;-47
2022/03/26 01:35:22;;;;;;;;;62.33;43.33;;;;;3.32;62.81;100545.03;6279506;20;2884639;-46
2022/03/26 01:37:50;;;;;;;;;59.00;43.00;;;;;2.75;63.96;100538.94;6309019;20;2493000;-46
2022/03/26 01:40:18;;;;;;;;;62.00;46.00;;;;;3.50;62.16;100534.09;6275297;20;2493064;-48
2022/03/26 01:42:47;;;;;;;;;54.00;42.50;;;;;3.61;61.25;100537.44;6281168;20;2877342;-45
2022/03/26 01:45:15;;;;;;;;;52.00;41.00;;;;;3.20;62.52;100541.72;6277276;20;2492966;-46
2022/03/26 01:47:43;;;;;;;;;49.50;40.00;;;;;3.14;64.25;100536.53;6278203;20;2493070;-45
2022/03/26 01:50:13;;;;;;;;;55.00;38.00;;;;;3.36;64.28;100536.13;6277601;20;3646122;-46
2022/03/26 01:52:41;;;;;;;;;53.33;43.00;;;;;3.60;63.67;100534.81;6312245;20;3617924;-45
2022/03/26 01:55:10;;;;;;;;;63.00;44.00;;;;;3.63;64.11;100535.59;6280903;20;2876353;-47
2022/03/26 01:57:40;;;;;;;;;64.00;48.00;;;;;3.40;65.02;100529.88;6278914;20;2859654;-46
2022/03/26 02:00:11;;;;;;;;;59.00;47.00;;;;;3.26;65.65;100530.97;6275832;20;2863829;-45
2022/03/26 02:02:45;;;;;;;;;65.00;46.00;;;;;3.57;64.11;100524.25;6281207;20;2878400;-47
2022/03/26 02:05:18;;;;;;;;;63.00;44.67;;;;;3.10;65.14;100536.59;6316410;20;2892110;-45
2022/03/26 02:07:50;;;;;;;;;57.67;42.33;;;;;2.93;65.14;100528.94;6315173;20;3630453;-48
2022/03/26 02:10:20;;;;;;;;;51.67;40.67;;;;;2.11;65.83;100534.59;6312924;20;2860704;-46
2022/03/26 02:12:50;;;;;;;;;59.00;43.00;;;;;2.19;65.94;100543.31;6316108;20;2889973;-48
2022/03/26 02:15:19;;;;;;;;;43.00;38.50;;;;;2.48;64.78;100544.69;6317511;20;2873198;-51
2022/03/26 02:17:48;;;;;;;;;37.00;33.50;;;;;2.36;65.75;100541.28;6284801;20;2850252;-50
2022/03/26 02:20:17;;;;;;;;;41.50;37.50;;;;;2.60;65.43;100534.75;6285173;20;2856533;-49
2022/03/26 02:22:45;;;;;;;;;43.50;36.50;;;;;2.64;65.16;100536.47;6283239;20;2863153;-46
2022/03/26 02:25:14;;;;;;;;;42.00;33.00;;;;;2.76;65.95;100540.69;6285655;20;2856534;-48
2022/03/26 02:27:43;;;;;;;;;42.00;35.50;;;;;2.72;66.97;100539.00;6283773;20;2870049;-48
2022/03/26 02:30:13;;;;;;;;;40.00;32.50;;;;;3.15;66.46;100532.97;6284034;20;2859671;-47
2022/03/26 02:32:41;;;;;;;;;45.50;34.00;;;;;2.84;67.60;100535.25;6285642;20;2874222;-48
2022/03/26 02:35:12;;;;;;;;;61.00;41.67;;;;;3.25;66.25;100534.56;6284238;20;3628643;-46
2022/03/26 02:37:41;;;;;;;;;42.00;35.50;;;;;3.30;65.55;100537.13;6316393;20;2858599;-47
2022/03/26 02:40:10;;;;;;;;;41.00;33.00;;;;;3.34;64.67;100538.81;6284544;20;2857582;-47
2022/03/26 02:42:39;;;;;;;;;50.00;42.00;;;;;2.61;67.55;100535.66;6284361;20;2861863;-46
2022/03/26 02:45:08;;;;;;;;;43.00;39.00;;;;;2.52;68.71;100541.06;6281397;20;2504420;-46
2022/03/26 02:47:37;;;;;;;;;42.50;36.50;;;;;2.58;68.82;100538.31;6284832;20;2871080;-47
2022/03/26 02:50:08;;;;;;;;;42.50;32.00;;;;;2.51;68.94;100541.97;6284469;20;2870040;-49
2022/03/26 02:52:37;;;;;;;;;50.33;41.00;;;;;2.93;68.05;100542.22;6284960;20;3626287;-45
2022/03/26 02:55:09;;;;;;;;;40.00;34.00;;;;;2.71;68.00;100537.22;6316351;20;2756722;-48
2022/03/26 02:57:38;;;;;;;;;54.33;45.00;;;;;3.25;66.19;100539.00;6314503;20;3586675;-51
2022/03/26 03:00:09;;;;;;;;;29.00;24.00;;;;;3.07;67.10;100534.88;6284041;20;3553472;-47
2022/03/26 03:02:38;;;;;;;;;56.50;46.00;;;;;2.92;67.58;100535.13;6284462;20;2862788;-48
2022/03/26 03:05:08;;;;;;;;;67.67;49.00;;;;;2.85;68.65;100529.94;6284386;20;2882649;-46
2022/03/26 03:07:36;;;;;;;;;53.50;44.00;;;;;2.83;69.07;100539.69;6314953;20;2499222;-46
2022/03/26 03:10:06;;;;;;;;;74.00;55.50;;;;;2.72;69.54;100539.00;6279801;20;2880580;-47
2022/03/26 03:12:35;;;;;;;;;59.00;44.50;;;;;3.12;68.83;100530.38;6284473;20;2854405;-49
2022/03/26 03:15:04;;;;;;;;;67.00;51.50;;;;;3.08;68.94;100526.00;6282650;20;2872256;-50
2022/03/26 03:17:41;;;;;;;;;74.00;54.00;;;;;3.12;68.66;100527.72;6280899;20;2888808;-53
2022/03/26 03:20:12;;;;;;;;;61.00;46.67;;;;;2.96;69.83;100524.44;6282192;20;2881565;-49
2022/03/26 03:22:43;;;;;;;;;51.00;43.50;;;;;3.28;68.18;100521.22;6313717;20;2862908;-48
2022/03/26 03:25:12;;;;;;;;;65.00;48.67;;;;;3.04;68.74;100525.19;6281018;20;3621089;-47
2022/03/26 03:27:42;;;;;;;;;62.00;45.33;;;;;3.19;69.37;100524.06;6315468;20;3631673;-48
2022/03/26 03:30:12;;;;;;;;;52.00;44.00;;;;;3.04;69.28;100522.53;6313722;20;2854473;-46
2022/03/26 03:32:40;;;;;;;;;56.50;44.00;;;;;2.74;70.71;100526.59;6283704;20;2875325;-49
2022/03/26 03:35:10;;;;;;;;;70.33;46.67;;;;;2.65;70.60;100521.41;6283110;20;2888890;-47
2022/03/26 03:37:41;;;;;;;;;70.67;48.67;;;;;2.52;70.24;100522.50;6315127;20;2885791;-48
2022/03/26 03:40:13;;;;;;;;;65.50;48.50;;;;;2.86;67.86;100523.72;6312074;20;2874256;-47
2022/03/26 03:42:42;;;;;;;;;48.00;38.33;;;;;2.84;68.43;100517.59;6281487;20;2875432;-51
2022/03/26 03:45:12;;;;;;;;;50.00;39.33;;;;;2.23;70.08;100513.22;6312612;20;2885843;-45
2022/03/26 03:47:41;;;;;;;;;63.00;43.00;;;;;2.04;70.96;100511.72;6310906;20;2868119;-47
2022/03/26 03:50:11;;;;;;;;;60.00;42.00;;;;;2.28;70.12;100516.69;6282249;20;2883631;-59
2022/03/26 03:52:40;;;;;;;;;51.50;41.00;;;;;2.38;68.46;100522.72;6316018;20;2873208;-59
2022/03/26 03:55:10;;;;;;;;;48.67;39.33;;;;;1.73;68.92;100523.56;6282102;20;2879508;-59
2022/03/26 03:57:44;;;;;;;;;45.00;37.50;;;;;0.79;71.47;100517.47;6314689;20;2868021;-59
2022/03/26 04:00:16;;;;;;;;;38.00;33.00;;;;;1.01;72.52;100518.19;6279045;20;2862760;-59
2022/03/26 04:02:44;;;;;;;;;47.50;37.50;;;;;1.16;71.98;100514.50;6279674;20;2500349;-59
2022/03/26 04:05:14;;;;;;;;;47.00;35.00;;;;;1.21;72.10;100513.59;6282964;20;2870052;-60
2022/03/26 04:07:44;;;;;;;;;36.00;29.00;;;;;1.52;72.52;100519.41;6281751;20;2856497;-59
2022/03/26 04:10:13;;;;;;;;;43.00;33.50;;;;;1.80;70.85;100510.28;6278797;20;2500299;-60
2022/03/26 04:12:44;;;;;;;;;37.00;34.00;;;;;1.95;71.15;100520.69;6282798;20;2842968;-58
2022/03/26 04:15:14;;;;;;;;;47.33;37.33;;;;;2.01;69.95;100522.38;6283487;20;2878531;-57
2022/03/26 04:17:43;;;;;;;;;39.50;33.00;;;;;1.54;71.78;100522.03;6312705;20;2857532;-44
2022/03/26 04:20:13;;;;;;;;;52.67;37.67;;;;;1.91;72.10;100521.59;6280529;20;2891090;-44
2022/03/26 04:22:41;;;;;;;;;52.50;42.50;;;;;1.64;72.65;100525.47;6306235;20;2504477;-46
2022/03/26 04:25:10;;;;;;;;;50.00;42.50;;;;;1.72;72.69;100527.13;6281834;20;2875303;-46
2022/03/26 04:27:44;;;;;;;;;43.00;34.00;;;;;1.63;72.46;100534.28;6283400;20;2869013;-47
2022/03/26 04:30:14;;;;;;;;;47.50;38.50;;;;;1.77;73.21;100531.50;6281801;20;2873159;-47
2022/03/26 04:32:44;;;;;;;;;53.00;41.67;;;;;2.54;70.82;100536.63;6282544;20;2873198;-47
2022/03/26 04:35:13;;;;;;;;;47.00;39.50;;;;;2.13;72.43;100541.63;6313083;20;2875276;-46
2022/03/26 04:37:43;;;;;;;;;43.00;41.00;;;;;1.74;73.28;100540.34;6283027;20;2860684;-46
2022/03/26 04:40:14;;;;;;;;;55.67;44.00;;;;;2.17;71.97;100539.81;6281039;20;2882718;-47
2022/03/26 04:42:44;;;;;;;;;56.33;36.00;;;;;1.89;73.32;100532.19;6313598;20;2879481;-46
2022/03/26 04:45:13;;;;;;;;;60.33;44.00;;;;;1.98;73.12;100542.69;6310415;20;3626271;-46
2022/03/26 04:47:43;;;;;;;;;55.00;44.00;;;;;2.14;72.83;100545.16;6310851;20;2872128;-47
2022/03/26 04:50:13;;;;;;;;;58.67;44.00;;;;;2.23;72.67;100547.66;6277089;20;2877452;-45
2022/03/26 04:52:42;;;;;;;;;69.00;54.00;;;;;2.06;73.69;100536.44;6312343;20;2868034;-47
2022/03/26 04:55:11;;;;;;;;;63.50;53.00;;;;;2.33;72.88;100540.47;6281172;20;2865906;-47
2022/03/26 04:57:47;;;;;;;;;66.50;49.00;;;;;2.23;73.65;100537.06;6280398;20;2868087;-44
2022/03/26 05:00:19;;;;;;;;;62.00;46.00;;;;;2.30;73.41;100546.69;6277191;20;2882552;-45
2022/03/26 05:02:48;;;;;;;;;67.00;48.00;;;;;2.31;73.29;100543.13;6282611;20;2878416;-45
2022/03/26 05:05:16;;;;;;;;;23.00;18.50;;;;;2.70;71.19;100535.47;6281934;20;2841920;-45
2022/03/26 05:07:46;;;;;;;;;62.00;45.67;;;;;3.21;69.56;100547.91;6284579;20;2885669;-44
2022/03/26 05:10:21;;;;;;;;;58.00;47.00;;;;;2.86;70.24;100544.94;6311274;20;2856493;-45
2022/03/26 05:12:53;;;;;;;;;54.33;43.67;;;;;3.19;69.75;100547.06;6282909;20;2883610;-45
2022/03/26 05:15:24;;;;;;;;;61.00;48.50;;;;;2.92;70.01;100553.69;6310269;20;2495102;-45
2022/03/26 05:17:56;;;;;;;;;59.67;47.33;;;;;3.60;67.91;100556.03;6280662;20;3573280;-44
2022/03/26 05:20:24;;;;;;;;;61.00;48.50;;;;;3.58;67.24;100563.16;6277316;20;2500316;-47
2022/03/26 05:22:53;;;;;;;;;35.50;27.00;;;;;2.52;65.51;100567.56;6277586;20;2858587;-44
2022/03/26 05:25:22;;;;;;;;;41.00;34.50;;;;;3.02;64.33;100571.22;6280829;20;2865896;-45
2022/03/26 05:27:53;;;;;;;;;39.00;31.50;;;;;2.89;64.00;100561.72;6278210;20;2500300;-45
2022/03/26 05:30:22;;;;;;;;;39.50;34.00;;;;;2.36;67.65;100562.47;6279410;20;2854451;-45
2022/03/26 05:32:51;;;;;;;;;49.00;37.00;;;;;2.86;67.09;100563.50;6282371;20;2863829;-46
2022/03/26 05:35:21;;;;;;;;;55.00;43.50;;;;;3.45;66.19;100562.50;6281175;20;2863780;-45
2022/03/26 05:37:51;;;;;;;;;50.50;43.00;;;;;3.71;66.99;100565.56;6280315;20;2859762;-46
2022/03/26 05:40:22;;;;;;;;;60.50;46.00;;;;;4.43;65.87;100560.53;6279088;20;2866919;-47
2022/03/26 05:42:52;;;;;;;;;55.00;41.33;;;;;4.61;64.79;100565.44;6282890;20;2879488;-48
2022/03/26 05:45:21;;;;;;;;;54.00;42.00;;;;;5.15;63.70;100571.25;6309772;20;2854434;-46
2022/03/26 05:47:56;;;;;;;;;60.33;46.33;;;;;5.18;63.30;100569.38;6281845;20;2883659;-47
2022/03/26 05:50:24;;;;;;;;;55.00;47.00;;;;;5.37;63.21;100566.22;6307516;20;2500795;-47
2022/03/26 05:52:53;;;;;;;;;59.67;46.33;;;;;5.78;61.60;100578.44;6282793;20;3591951;-47
2022/03/26 05:55:23;;;;;;;;;56.00;42.33;;;;;6.09;60.63;100577.63;6280829;20;3624241;-46
2022/03/26 05:57:51;;;;;;;;;44.50;39.00;;;;;6.07;59.35;100579.47;6311241;20;2879439;-48
2022/03/26 06:00:19;;;;;;;;;41.50;37.00;;;;;6.69;57.76;100582.06;6271906;20;2498314;-46
2022/03/26 06:02:48;;;;;;;;;56.00;42.00;;;;;6.88;58.12;100582.34;6278807;20;2860684;-46
2022/03/26 06:05:19;;;;;;;;;74.67;55.33;;;;;7.34;57.42;100587.97;6310225;20;3639842;-49
2022/03/26 06:07:48;;;;;;;;;71.00;55.50;;;;;7.63;56.70;100587.81;6311087;20;2870041;-45
2022/03/26 06:10:17;;;;;;;;;78.00;61.33;;;;;9.06;52.88;100590.50;6278569;20;3627323;-48
2022/03/26 06:12:47;;;;;;;;;82.67;60.00;;;;;10.46;48.10;100592.50;6300598;20;3645149;-50
2022/03/26 06:15:16;;;;;;;;;84.00;66.00;;;;;9.32;50.82;100583.16;6311740;20;2791908;-48
2022/03/26 06:18:06;;;;;;;;;70.00;53.67;;;;;9.09;51.39;100585.00;6275557;20;3640031;-44
2022/03/26 06:20:36;;;;;;;;;72.33;54.00;;;;;9.58;51.04;100584.75;6306590;20;3645172;-46
2022/03/26 06:23:07;;;;;;;;;48.00;37.67;;;;;10.52;47.02;100590.38;6309067;20;3627334;-45
2022/03/26 06:25:36;;;;;;;;;36.67;26.33;;;;;10.80;45.70;100589.06;6310671;20;3613891;-45
2022/03/26 06:28:06;;;;;;;;;38.33;33.00;;;;;11.98;44.70;100587.63;6276639;20;2846105;-45
2022/03/26 06:30:35;;;;;;;;;47.50;35.50;;;;;12.33;42.46;100593.84;6311570;20;3631598;-45
2022/03/26 06:33:04;;;;;;;;;47.00;38.00;;;;;13.31;40.92;100600.94;6310821;20;2846143;-43
2022/03/26 06:35:34;;;;;;;;;50.33;40.00;;;;;11.52;44.73;100598.06;6274810;20;2879518;-42
2022/03/26 06:38:03;;;;;;;;;41.00;34.33;;;;;11.11;46.10;100598.31;6312512;20;3597272;-53
2022/03/26 06:40:33;;;;;;;;;47.67;37.00;;;;;10.17;49.02;100597.34;6275429;20;3638943;-54
2022/03/26 06:43:01;;;;;;;;;40.67;29.67;;;;;10.43;49.11;100598.00;6314367;20;3626303;-54
2022/03/26 06:45:31;;;;;;;;;39.33;33.67;;;;;10.29;49.92;100599.50;6276859;20;3608645;-55
2022/03/26 06:48:00;;;;;;;;;38.00;32.33;;;;;10.13;50.97;100598.41;6314724;20;3598292;-51
2022/03/26 06:50:31;;;;;;;;;58.67;44.67;;;;;10.40;49.12;100603.50;6280400;20;2881505;-55
2022/03/26 06:53:00;;;;;;;;;49.00;37.00;;;;;10.76;49.23;100599.06;6316738;20;2871129;-53
2022/03/26 06:55:29;;;;;;;;;43.67;34.67;;;;;10.86;49.75;100601.34;6317475;20;3626295;-56
2022/03/26 06:57:59;;;;;;;;;46.67;38.00;;;;;11.64;48.26;100603.72;6284948;20;2859698;-54
2022/03/26 07:00:28;;;;;;;;;38.00;34.00;;;;;11.00;48.94;100606.91;6316920;20;3591928;-54
2022/03/26 07:02:57;;;;;;;;;36.67;31.00;;;;;11.02;48.46;100610.41;6282930;20;3602534;-55
2022/03/26 07:05:26;;;;;;;;;33.67;31.33;;;;;12.02;47.66;100617.00;6315261;20;3605443;-55
2022/03/26 07:07:56;;;;;;;;;37.33;33.67;;;;;12.21;46.28;100614.22;6283676;20;3608551;-55
2022/03/26 07:10:25;;;;;;;;;31.67;30.00;;;;;12.23;46.61;100611.44;6315101;20;3594013;-54
2022/03/26 07:12:54;;;;;;;;;33.00;28.00;;;;;12.66;46.10;100614.47;6281280;20;3596101;-55
2022/03/26 07:15:23;;;;;;;;;26.00;24.00;;;;;13.14;44.59;100613.56;6311284;20;2848217;-56
2022/03/26 07:17:52;;;;;;;;;34.00;24.50;;;;;12.91;45.26;100604.06;6285175;20;2857695;-51
2022/03/26 07:20:21;;;;;;;;;32.67;27.67;;;;;14.42;42.02;100612.19;6284970;20;3609656;-53
2022/03/26 07:22:50;;;;;;;;;33.33;27.00;;;;;16.83;38.12;100620.38;6285110;20;3600233;-55
2022/03/26 07:25:19;;;;;;;;;30.50;23.00;;;;;15.13;40.13;100615.81;6314640;20;2855453;-56
2022/03/26 07:27:48;;;;;;;;;27.67;23.00;;;;;15.08;40.55;100608.00;6283634;20;3587722;-50
2022/03/26 07:30:17;;;;;;;;;25.00;24.33;;;;;14.82;40.37;100603.41;6282841;20;3583187;-53
2022/03/26 07:32:46;;;;;;;;;26.00;26.00;;;;;14.98;40.20;100612.28;6281144;20;2850910;-55
2022/03/26 07:35:14;;;;;;;;;17.33;15.00;;;;;14.83;39.65;100605.19;6282903;20;3550257;-58
2022/03/26 07:37:44;;;;;;;;;28.33;24.00;;;;;15.08;39.81;100608.00;6286500;20;2852540;-57
2022/03/26 07:40:15;;;;;;;;;20.00;19.00;;;;;14.96;39.77;100606.13;6316347;20;2839945;-56
2022/03/26 07:42:44;;;;;;;;;24.00;21.00;;;;;15.46;39.36;100604.59;6286886;20;2839847;-56
2022/03/26 07:45:13;;;;;;;;;24.50;20.00;;;;;15.47;39.26;100606.31;6288656;20;2835744;-56
2022/03/26 07:47:41;;;;;;;;;22.00;20.00;;;;;15.84;38.45;100606.56;6283213;20;2724385;-55
2022/03/26 07:50:10;;;;;;;;;23.50;21.00;;;;;15.64;38.48;100607.00;6312603;20;2848238;-56
2022/03/26 07:52:41;;;;;;;;;24.50;21.50;;;;;15.55;38.53;100609.38;6284389;20;2847116;-57
2022/03/26 07:55:10;;;;;;;;;24.50;21.00;;;;;15.26;39.81;100610.47;6282790;20;2833613;-57
2022/03/26 07:57:39;;;;;;;;;27.00;23.50;;;;;15.76;38.55;100606.22;6286885;20;2836796;-57
2022/03/26 08:00:09;;;;;;;;;26.00;24.00;;;;;16.41;37.66;100599.88;6284421;20;2846089;-56
2022/03/26 08:02:38;;;;;;;;;33.67;26.67;;;;;16.53;37.46;100601.69;6288946;20;3607528;-56
2022/03/26 08:05:07;;;;;;;;;25.00;21.67;;;;;16.76;37.11;100599.19;6289443;20;3582509;-56
2022/03/26 08:07:36;;;;;;;;;32.33;26.67;;;;;16.76;37.09;100602.75;6288974;20;3612722;-56
2022/03/26 08:10:05;;;;;;;;;30.67;27.00;;;;;16.19;37.86;100590.59;6288137;20;3604412;-58
2022/03/26 08:12:34;;;;;;;;;28.00;26.67;;;;;16.39;37.71;100588.28;6285033;20;3596192;-58
2022/03/26 08:15:05;;;;;;;;;29.33;23.67;;;;;16.63;36.77;100591.06;6283571;20;3600262;-56
2022/03/26 08:17:34;;;;;;;;;24.00;24.00;;;;;17.23;35.52;100593.00;6315263;20;3581643;-56
2022/03/26 08:20:05;;;;;;;;;26.67;24.67;;;;;17.73;35.34;100579.28;6282016;20;3598177;-55
2022/03/26 08:22:34;;;;;;;;;27.00;22.33;;;;;18.25;34.26;100582.53;6317147;20;3581501;-57
2022/03/26 08:25:04;;;;;;;;;22.67;19.00;;;;;18.23;32.22;100579.06;6288601;20;3566918;-57
2022/03/26 08:27:33;;;;;;;;;19.00;19.00;;;;;18.15;32.67;100577.78;6280145;20;2835737;-61
2022/03/26 08:30:04;;;;;;;;;19.00;17.00;;;;;18.43;31.73;100583.75;6285191;20;2833651;-57
2022/03/26 08:32:32;;;;;;;;;21.00;21.00;;;;;18.47;30.92;100582.53;6285478;20;3572147;-56
2022/03/26 08:35:01;;;;;;;;;22.67;17.33;;;;;18.57;31.59;100580.78;6285624;20;3585789;-58
2022/03/26 08:37:34;;;;;;;;;20.00;20.00;;;;;18.81;31.07;100574.38;6285437;20;2842022;-57
2022/03/26 08:40:04;;;;;;;;;25.67;23.33;;;;;18.93;30.81;100584.28;6282734;20;2842015;-56
2022/03/26 08:42:34;;;;;;;;;25.67;20.33;;;;;18.14;30.95;100575.19;6316911;20;3584623;-50
2022/03/26 08:45:03;;;;;;;;;24.50;22.00;;;;;18.23;31.77;100581.78;6284414;20;2831560;-57
2022/03/26 08:47:32;;;;;;;;;22.33;20.00;;;;;18.97;30.92;100583.00;6283464;20;2500318;-58
2022/03/26 08:50:02;;;;;;;;;26.00;24.00;;;;;18.46;31.00;100580.81;6311197;20;2846150;-55
2022/03/26 08:52:31;;;;;;;;;24.00;19.00;;;;;19.00;30.27;100587.34;6319112;20;3577302;-56
2022/03/26 08:55:01;;;;;;;;;22.67;20.00;;;;;18.94;30.58;100590.56;6283262;20;2843143;-56
2022/03/26 08:57:30;;;;;;;;;24.33;21.67;;;;;19.64;30.00;100595.56;6318653;20;3559690;-54
2022/03/26 08:59:59;;;;;;;;;28.67;22.67;;;;;18.50;30.48;100587.72;6284413;20;3588747;-56
2022/03/26 09:02:27;;;;;;;;;25.00;20.67;;;;;18.98;29.18;100590.16;6289742;20;3574183;-53
2022/03/26 09:04:56;;;;;;;;;28.67;21.00;;;;;18.99;29.09;100591.91;6286413;20;3600265;-55
2022/03/26 09:07:25;;;;;;;;;23.00;20.33;;;;;18.47;29.06;100587.97;6287206;20;3581544;-58
2022/03/26 09:09:54;;;;;;;;;32.33;22.67;;;;;18.31;30.02;100588.31;6284972;20;3606519;-55
2022/03/26 09:12:22;;;;;;;;;21.67;19.67;;;;;19.03;29.98;100587.94;6285877;20;3577347;-56
2022/03/26 09:14:51;;;;;;;;;25.50;24.00;;;;;18.86;29.08;100586.63;6282125;20;2834812;-56
2022/03/26 09:17:20;;;;;;;;;29.00;23.00;;;;;19.41;29.30;100594.78;6287262;20;3589881;-58
2022/03/26 09:19:48;;;;;;;;;29.00;22.67;;;;;19.41;28.74;100593.94;6284889;20;3586748;-57
2022/03/26 09:22:17;;;;;;;;;29.33;29.33;;;;;19.71;28.96;100587.75;6287142;20;3583651;-57
2022/03/26 09:24:46;;;;;;;;;25.67;23.00;;;;;20.20;28.62;100586.25;6288675;20;3578382;-58
2022/03/26 09:27:15;;;;;;;;;24.33;22.67;;;;;19.26;29.02;100590.63;6285631;20;3563768;-57
2022/03/26 09:29:45;;;;;;;;;27.33;25.00;;;;;19.13;28.59;100585.31;6285292;20;3585817;-58
2022/03/26 09:32:14;;;;;;;;;30.33;24.00;;;;;19.56;28.71;100586.28;6282227;20;2845159;-57
2022/03/26 09:34:43;;;;;;;;;25.67;25.67;;;;;18.73;29.74;100582.28;6316916;20;3588774;-58
2022/03/26 09:37:12;;;;;;;;;26.00;24.67;;;;;18.95;28.55;100586.84;6286339;20;3584623;-58
2022/03/26 09:39:42;;;;;;;;;28.00;23.00;;;;;19.89;28.81;100583.44;6283752;20;2724325;-57
2022/03/26 09:42:11;;;;;;;;;29.67;25.00;;;;;20.37;26.84;100577.41;6317906;20;3590856;-58
2022/03/26 09:44:40;;;;;;;;;29.33;25.67;;;;;20.01;27.52;100575.19;6287843;20;3593969;-58
2022/03/26 09:47:10;;;;;;;;;28.67;26.33;;;;;19.25;27.55;100578.88;6285287;20;3602344;-58
2022/03/26 09:49:40;;;;;;;;;31.00;28.33;;;;;19.28;28.17;100572.31;6287371;20;3598155;-58
2022/03/26 09:52:08;;;;;;;;;29.00;26.33;;;;;19.70;27.10;100578.72;6285116;20;3588739;-57
2022/03/26 09:54:38;;;;;;;;;34.00;26.00;;;;;19.05;27.19;100571.50;6282342;20;3481636;-57
2022/03/26 09:57:07;;;;;;;;;28.67;26.33;;;;;19.89;26.47;100577.13;6316406;20;3591916;-57
2022/03/26 09:59:36;;;;;;;;;22.00;18.00;;;;;19.38;25.63;100566.91;6283370;20;3565834;-58
2022/03/26 10:02:05;;;;;;;;;27.67;25.67;;;;;20.05;25.68;100565.75;6317229;20;3584706;-58
2022/03/26 10:04:40;;;;;;;;;26.67;22.33;;;;;20.21;24.32;100568.00;6286646;20;3591959;-58
2022/03/26 10:07:09;;;;;;;;;31.00;25.33;;;;;19.99;25.60;100564.44;6287341;20;3602299;-59
2022/03/26 10:09:45;;;;;;;;;26.67;25.00;;;;;20.55;24.96;100564.03;6282040;20;3592920;-58
2022/03/26 10:12:21;;;;;;;;;26.33;26.00;;;;;19.98;24.92;100559.97;6286279;20;3575326;-58
2022/03/26 10:15:00;;;;;;;;;27.33;21.67;;;;;20.11;24.66;100554.31;6286404;20;3574243;-58
2022/03/26 10:17:33;;;;;;;;;22.00;21.33;;;;;20.37;24.19;100550.13;6286319;20;3563803;-56
2022/03/26 10:20:12;;;;;;;;;34.00;27.33;;;;;20.43;25.59;100547.88;6278501;20;3607649;-58
2022/03/26 10:22:50;;;;;;;;;29.67;24.67;;;;;19.98;25.17;100542.75;6315618;20;3583550;-61
2022/03/26 10:25:24;;;;;;;;;30.33;28.00;;;;;19.29;26.75;100541.34;6288768;20;3604373;-59
2022/03/26 10:27:56;;;;;;;;;28.00;28.00;;;;;19.82;25.82;100535.91;6289383;20;3595045;-57
2022/03/26 10:33:28;;;;;;;;;27.67;27.00;;;;;20.09;24.78;100534.50;6290249;20;3579399;-58
2022/03/26 10:36:01;;;;;;;;;37.67;30.33;;;;;20.11;25.46;100537.94;6291235;20;3638753;-59
2022/03/26 10:38:42;;;;;;;;;24.67;21.33;;;;;20.23;24.41;100536.88;6290804;20;3572091;-59
2022/03/26 10:41:11;;;;;;;;;18.00;16.00;;;;;20.29;23.68;100530.00;6286422;20;2483680;-59
2022/03/26 10:43:42;;;;;;;;;25.00;23.33;;;;;20.35;24.41;100524.88;6288143;20;2847187;-58
2022/03/26 10:46:10;;;;;;;;;20.67;18.00;;;;;19.94;24.34;100521.22;6319521;20;2827354;-52
2022/03/26 10:48:39;;;;;;;;;19.50;19.00;;;;;20.01;24.20;100518.84;6316543;20;2831524;-48
2022/03/26 10:51:15;;;;;;;;;20.00;17.50;;;;;20.15;24.62;100506.69;6288055;20;2828413;-50
2022/03/26 10:53:47;;;;;;;;;19.50;18.00;;;;;21.01;24.01;100498.94;6285473;20;2828396;-50
2022/03/26 10:56:16;;;;;;;;;15.67;9.00;;;;;20.76;22.24;100505.81;6286960;20;3506508;-49
2022/03/26 10:58:44;;;;;;;;;9.00;9.00;;;;;20.76;22.92;100501.22;6325629;20;2758615;-50
2022/03/26 11:01:13;;;;;;;;;7.40;7.40;;;;;20.73;22.00;100498.75;6315235;20;2744130;-48
2022/03/26 11:03:43;;;;;;;;;14.00;12.00;;;;;20.10;23.37;100498.91;6299420;20;3513795;-48
2022/03/26 11:06:15;;;;;;;;;16.50;16.50;;;;;20.66;23.92;100494.84;6309324;20;2824195;-48
2022/03/26 11:08:46;;;;;;;;;20.00;18.00;;;;;20.48;24.14;100497.34;6285029;20;2839861;-47
2022/03/26 11:11:15;;;;;;;;;17.00;16.00;;;;;20.57;23.82;100487.53;6285509;20;3550356;-46
2022/03/26 11:13:49;;;;;;;;;20.00;18.33;;;;;20.67;24.63;100480.22;6283752;20;2837822;-47